Ana Sayfa
METAR-TAF:

METAR-TAF

Havaalanları :

Mataram, Endonezya

Enlem: 08-45-29S, Boylam: 116-16-35E, yükseklik: 97 m

Güncel hava durumu gözlemi

Rapor saat 15:00 UTC de 36 dakika önce yapıldı.
Rüzgar kuzeydoğudan 1 kt
Sıcaklık 24°C
Nem 89%
Basınç 1014 hPa
Görüş mesafesi: 7000 m
1600 ft yükseklikte parçalı çok bulutlu

METAR: WADL 211500Z 04001KT 7000 BKN016 24/22 Q1014 NOSIG

Saat: 22:36 (15:36 UTC)

Tahmin

Rapor saat 11:00 UTC de 4 saat ve 36 dakika önce yapıldı.
Ayın 21'si saat 12 UTC'den ayın 22'si saat 12 UTC'ye kadar geçerli Tahmin
Rüzgar güneydoğudan 5 kt
Görüş mesafesi: 7000 m
1600 ft yükseklikte parçalı çok bulutlu
Geçici
ayın 21'si saat 21 UTC'den ayın 21'si saat 23 UTC'ye kadar
Görüş mesafesi: 3000 m
Pus
Dönüşüyor
ayın 22'si saat 02 UTC'den ayın 22'si saat 04 UTC'ye kadar
Rüzgar güneydoğudan 15 kt

TAF: WADL 211100Z 2112/2212 13005KT 7000 BKN016 TEMPO 2121/2123 3000 BR BECMG 2202/2204 14015KT

4.000'den fazla havaalanı için hava durumu gözlemleri ve tahminleri (METAR ve TAF raporları).

Kullanılabilir istasyonlar harita üzerinde sarı ve kırmızı noktalarla gösterilir.

İstasyonun adını görmek için fareyi noktanın üzerinde gezdirin.

Sonrasında hava gözlem ve tahminlerini görmek için tıklayın.

Haritayı değiştirmek için: yaklaştırmak için siyah artı işaretli yeşil düğmeye ve uzaklaştırmak için de eksi işaretli düğmeye hızla tıklayın; bitişik haritalar için yeşil okları kullanın.


METAR-TAF: